sensor_id;sensor_type;location;lat;lon;timestamp;temperature;humidity
19044;DHT22;9654;52.302;8.120;2024-02-21T00:02:21;8.30;99.90
19044;DHT22;9654;52.302;8.120;2024-02-21T00:04:48;8.30;99.90
19044;DHT22;9654;52.302;8.120;2024-02-21T00:07:15;8.30;99.90
19044;DHT22;9654;52.302;8.120;2024-02-21T00:09:41;8.30;99.90
19044;DHT22;9654;52.302;8.120;2024-02-21T00:12:09;8.30;99.90
19044;DHT22;9654;52.302;8.120;2024-02-21T00:14:37;8.30;99.90
19044;DHT22;9654;52.302;8.120;2024-02-21T00:17:04;8.30;99.90
19044;DHT22;9654;52.302;8.120;2024-02-21T00:19:31;8.30;99.90
19044;DHT22;9654;52.302;8.120;2024-02-21T00:21:57;8.30;99.90
19044;DHT22;9654;52.302;8.120;2024-02-21T00:24:24;8.30;99.90
19044;DHT22;9654;52.302;8.120;2024-02-21T00:26:51;8.30;99.90
19044;DHT22;9654;52.302;8.120;2024-02-21T00:29:18;8.30;99.90
19044;DHT22;9654;52.302;8.120;2024-02-21T00:31:47;8.30;99.90
19044;DHT22;9654;52.302;8.120;2024-02-21T00:34:14;8.30;99.90
19044;DHT22;9654;52.302;8.120;2024-02-21T00:36:41;8.30;99.90
19044;DHT22;9654;52.302;8.120;2024-02-21T00:39:08;8.30;99.90
19044;DHT22;9654;52.302;8.120;2024-02-21T00:41:35;8.30;99.90
19044;DHT22;9654;52.302;8.120;2024-02-21T00:44:02;8.30;99.90
19044;DHT22;9654;52.302;8.120;2024-02-21T00:46:31;8.30;99.90
19044;DHT22;9654;52.302;8.120;2024-02-21T00:48:59;8.30;99.90
19044;DHT22;9654;52.302;8.120;2024-02-21T00:51:26;8.30;99.90
19044;DHT22;9654;52.302;8.120;2024-02-21T00:53:53;8.30;99.90
19044;DHT22;9654;52.302;8.120;2024-02-21T00:56:19;8.30;99.90
19044;DHT22;9654;52.302;8.120;2024-02-21T00:58:46;8.30;99.90
19044;DHT22;9654;52.302;8.120;2024-02-21T01:01:13;8.30;99.90
19044;DHT22;9654;52.302;8.120;2024-02-21T01:03:47;8.30;99.90
19044;DHT22;9654;52.302;8.120;2024-02-21T01:06:15;8.30;99.90
19044;DHT22;9654;52.302;8.120;2024-02-21T01:08:42;8.40;99.90
19044;DHT22;9654;52.302;8.120;2024-02-21T01:11:09;8.40;99.90
19044;DHT22;9654;52.302;8.120;2024-02-21T01:13:36;8.40;99.90
19044;DHT22;9654;52.302;8.120;2024-02-21T01:16:03;8.30;99.90
19044;DHT22;9654;52.302;8.120;2024-02-21T01:18:31;8.30;99.90
19044;DHT22;9654;52.302;8.120;2024-02-21T01:20:59;8.30;99.90
19044;DHT22;9654;52.302;8.120;2024-02-21T01:23:27;8.40;99.90
19044;DHT22;9654;52.302;8.120;2024-02-21T01:25:54;8.30;99.90
19044;DHT22;9654;52.302;8.120;2024-02-21T01:28:21;8.40;99.90
19044;DHT22;9654;52.302;8.120;2024-02-21T01:30:48;8.30;99.90
19044;DHT22;9654;52.302;8.120;2024-02-21T01:33:15;8.30;99.90
19044;DHT22;9654;52.302;8.120;2024-02-21T01:35:42;8.40;99.90
19044;DHT22;9654;52.302;8.120;2024-02-21T01:38:08;8.40;99.90
19044;DHT22;9654;52.302;8.120;2024-02-21T01:40:37;8.30;99.90
19044;DHT22;9654;52.302;8.120;2024-02-21T01:43:15;8.30;99.90
19044;DHT22;9654;52.302;8.120;2024-02-21T01:45:42;8.30;99.90
19044;DHT22;9654;52.302;8.120;2024-02-21T01:48:09;8.40;99.90
19044;DHT22;9654;52.302;8.120;2024-02-21T01:50:36;8.40;99.90
19044;DHT22;9654;52.302;8.120;2024-02-21T01:53:03;8.40;99.90
19044;DHT22;9654;52.302;8.120;2024-02-21T01:55:30;8.40;99.90
19044;DHT22;9654;52.302;8.120;2024-02-21T01:57:59;8.40;99.90
19044;DHT22;9654;52.302;8.120;2024-02-21T02:00:26;8.40;99.90
19044;DHT22;9654;52.302;8.120;2024-02-21T02:02:54;8.40;99.90
19044;DHT22;9654;52.302;8.120;2024-02-21T02:05:21;8.40;99.90
19044;DHT22;9654;52.302;8.120;2024-02-21T02:07:48;8.40;99.90
19044;DHT22;9654;52.302;8.120;2024-02-21T02:10:16;8.40;99.90
19044;DHT22;9654;52.302;8.120;2024-02-21T02:12:43;8.40;99.90
19044;DHT22;9654;52.302;8.120;2024-02-21T02:15:11;8.40;99.90
19044;DHT22;9654;52.302;8.120;2024-02-21T02:17:38;8.40;99.90
19044;DHT22;9654;52.302;8.120;2024-02-21T02:20:06;8.40;99.90
19044;DHT22;9654;52.302;8.120;2024-02-21T02:22:37;8.40;99.90
19044;DHT22;9654;52.302;8.120;2024-02-21T02:25:07;8.40;99.90
19044;DHT22;9654;52.302;8.120;2024-02-21T02:27:41;8.40;99.90
19044;DHT22;9654;52.302;8.120;2024-02-21T02:30:10;8.40;99.90
19044;DHT22;9654;52.302;8.120;2024-02-21T02:32:38;8.40;99.90
19044;DHT22;9654;52.302;8.120;2024-02-21T02:35:05;8.40;99.90
19044;DHT22;9654;52.302;8.120;2024-02-21T02:37:32;8.40;99.90
19044;DHT22;9654;52.302;8.120;2024-02-21T02:39:59;8.40;99.90
19044;DHT22;9654;52.302;8.120;2024-02-21T02:42:27;8.40;99.90
19044;DHT22;9654;52.302;8.120;2024-02-21T02:44:54;8.40;99.90
19044;DHT22;9654;52.302;8.120;2024-02-21T02:47:22;8.40;99.90
19044;DHT22;9654;52.302;8.120;2024-02-21T02:49:49;8.40;99.90
19044;DHT22;9654;52.302;8.120;2024-02-21T02:52:16;8.40;99.90
19044;DHT22;9654;52.302;8.120;2024-02-21T02:54:43;8.30;99.90
19044;DHT22;9654;52.302;8.120;2024-02-21T02:57:10;8.40;99.90
19044;DHT22;9654;52.302;8.120;2024-02-21T02:59:39;8.40;99.90
19044;DHT22;9654;52.302;8.120;2024-02-21T03:02:06;8.40;99.90
19044;DHT22;9654;52.302;8.120;2024-02-21T03:04:33;8.40;99.90
19044;DHT22;9654;52.302;8.120;2024-02-21T03:07:00;8.40;99.90
19044;DHT22;9654;52.302;8.120;2024-02-21T03:09:27;8.40;99.90
19044;DHT22;9654;52.302;8.120;2024-02-21T03:11:54;8.40;99.90
19044;DHT22;9654;52.302;8.120;2024-02-21T03:14:28;8.40;99.90
19044;DHT22;9654;52.302;8.120;2024-02-21T03:16:56;8.40;99.90
19044;DHT22;9654;52.302;8.120;2024-02-21T03:19:23;8.40;99.90
19044;DHT22;9654;52.302;8.120;2024-02-21T03:21:49;8.40;99.90
19044;DHT22;9654;52.302;8.120;2024-02-21T03:24:16;8.40;99.90
19044;DHT22;9654;52.302;8.120;2024-02-21T03:26:43;8.40;99.90
19044;DHT22;9654;52.302;8.120;2024-02-21T03:29:11;8.40;99.90
19044;DHT22;9654;52.302;8.120;2024-02-21T03:31:38;8.40;99.90
19044;DHT22;9654;52.302;8.120;2024-02-21T03:34:06;8.40;99.90
19044;DHT22;9654;52.302;8.120;2024-02-21T03:36:34;8.40;99.90
19044;DHT22;9654;52.302;8.120;2024-02-21T03:39:00;8.40;99.90
19044;DHT22;9654;52.302;8.120;2024-02-21T03:41:27;8.40;99.90
19044;DHT22;9654;52.302;8.120;2024-02-21T03:43:54;8.30;99.90
19044;DHT22;9654;52.302;8.120;2024-02-21T03:46:21;8.40;99.90
19044;DHT22;9654;52.302;8.120;2024-02-21T03:48:48;8.40;99.90
19044;DHT22;9654;52.302;8.120;2024-02-21T03:51:16;8.40;99.90
19044;DHT22;9654;52.302;8.120;2024-02-21T03:53:43;8.40;99.90
19044;DHT22;9654;52.302;8.120;2024-02-21T03:56:10;8.40;99.90
19044;DHT22;9654;52.302;8.120;2024-02-21T03:58:37;8.40;99.90
19044;DHT22;9654;52.302;8.120;2024-02-21T04:01:04;8.40;99.90
19044;DHT22;9654;52.302;8.120;2024-02-21T04:03:31;8.40;99.90
19044;DHT22;9654;52.302;8.120;2024-02-21T04:05:57;8.40;99.90
19044;DHT22;9654;52.302;8.120;2024-02-21T04:08:26;8.40;99.90
19044;DHT22;9654;52.302;8.120;2024-02-21T04:10:53;8.40;99.90
19044;DHT22;9654;52.302;8.120;2024-02-21T04:13:19;8.40;99.90
19044;DHT22;9654;52.302;8.120;2024-02-21T04:15:48;8.30;99.90
19044;DHT22;9654;52.302;8.120;2024-02-21T04:18:15;8.40;99.90
19044;DHT22;9654;52.302;8.120;2024-02-21T04:20:42;8.30;99.90
19044;DHT22;9654;52.302;8.120;2024-02-21T04:23:09;8.30;99.90
19044;DHT22;9654;52.302;8.120;2024-02-21T04:25:37;8.30;99.90
19044;DHT22;9654;52.302;8.120;2024-02-21T04:28:05;8.30;99.90
19044;DHT22;9654;52.302;8.120;2024-02-21T04:30:32;8.20;99.90
19044;DHT22;9654;52.302;8.120;2024-02-21T04:32:59;8.20;99.90
19044;DHT22;9654;52.302;8.120;2024-02-21T04:35:26;8.20;99.90
19044;DHT22;9654;52.302;8.120;2024-02-21T04:37:53;8.20;99.90
19044;DHT22;9654;52.302;8.120;2024-02-21T04:40:20;8.20;99.90
19044;DHT22;9654;52.302;8.120;2024-02-21T04:42:48;8.20;99.90
19044;DHT22;9654;52.302;8.120;2024-02-21T04:45:15;8.10;99.90
19044;DHT22;9654;52.302;8.120;2024-02-21T04:47:43;8.10;99.90
19044;DHT22;9654;52.302;8.120;2024-02-21T04:50:10;8.10;99.90
19044;DHT22;9654;52.302;8.120;2024-02-21T04:52:37;8.10;99.90
19044;DHT22;9654;52.302;8.120;2024-02-21T04:55:04;8.10;99.90
19044;DHT22;9654;52.302;8.120;2024-02-21T04:57:31;8.10;99.90
19044;DHT22;9654;52.302;8.120;2024-02-21T04:59:59;8.00;99.90
19044;DHT22;9654;52.302;8.120;2024-02-21T05:02:27;8.00;99.90
19044;DHT22;9654;52.302;8.120;2024-02-21T05:04:53;8.00;99.90
19044;DHT22;9654;52.302;8.120;2024-02-21T05:07:20;8.00;99.90
19044;DHT22;9654;52.302;8.120;2024-02-21T05:09:47;7.90;99.90
19044;DHT22;9654;52.302;8.120;2024-02-21T05:12:14;7.90;99.90
19044;DHT22;9654;52.302;8.120;2024-02-21T05:14:41;7.90;99.90
19044;DHT22;9654;52.302;8.120;2024-02-21T05:17:09;8.00;99.90
19044;DHT22;9654;52.302;8.120;2024-02-21T05:19:36;7.90;99.90
19044;DHT22;9654;52.302;8.120;2024-02-21T05:22:03;7.90;99.90
19044;DHT22;9654;52.302;8.120;2024-02-21T05:24:30;8.00;99.90
19044;DHT22;9654;52.302;8.120;2024-02-21T05:26:57;8.00;99.90
19044;DHT22;9654;52.302;8.120;2024-02-21T05:29:23;8.00;99.90
19044;DHT22;9654;52.302;8.120;2024-02-21T05:31:57;8.00;99.90
19044;DHT22;9654;52.302;8.120;2024-02-21T05:34:25;8.00;99.90
19044;DHT22;9654;52.302;8.120;2024-02-21T05:36:52;8.10;99.90
19044;DHT22;9654;52.302;8.120;2024-02-21T05:39:19;8.10;99.90
19044;DHT22;9654;52.302;8.120;2024-02-21T05:41:48;8.10;99.90
19044;DHT22;9654;52.302;8.120;2024-02-21T05:44:15;8.10;99.90
19044;DHT22;9654;52.302;8.120;2024-02-21T05:46:42;8.10;99.90
19044;DHT22;9654;52.302;8.120;2024-02-21T05:49:09;8.10;99.90
19044;DHT22;9654;52.302;8.120;2024-02-21T05:51:37;8.10;99.90
19044;DHT22;9654;52.302;8.120;2024-02-21T05:54:04;8.10;99.90
19044;DHT22;9654;52.302;8.120;2024-02-21T05:56:32;8.20;99.90
19044;DHT22;9654;52.302;8.120;2024-02-21T05:58:59;8.20;99.90
19044;DHT22;9654;52.302;8.120;2024-02-21T06:01:26;8.20;99.90
19044;DHT22;9654;52.302;8.120;2024-02-21T06:03:53;8.20;99.90
19044;DHT22;9654;52.302;8.120;2024-02-21T06:06:20;8.20;99.90
19044;DHT22;9654;52.302;8.120;2024-02-21T06:08:49;8.20;99.90
19044;DHT22;9654;52.302;8.120;2024-02-21T06:11:16;8.20;99.90
19044;DHT22;9654;52.302;8.120;2024-02-21T06:13:43;8.20;99.90
19044;DHT22;9654;52.302;8.120;2024-02-21T06:16:09;8.20;99.90
19044;DHT22;9654;52.302;8.120;2024-02-21T06:18:36;8.20;99.90
19044;DHT22;9654;52.302;8.120;2024-02-21T06:21:04;8.20;99.90
19044;DHT22;9654;52.302;8.120;2024-02-21T06:23:31;8.20;99.90
19044;DHT22;9654;52.302;8.120;2024-02-21T06:25:59;8.20;99.90
19044;DHT22;9654;52.302;8.120;2024-02-21T06:28:26;8.20;99.90
19044;DHT22;9654;52.302;8.120;2024-02-21T06:30:53;8.20;99.90
19044;DHT22;9654;52.302;8.120;2024-02-21T06:33:20;8.20;99.90
19044;DHT22;9654;52.302;8.120;2024-02-21T06:35:50;8.20;99.90
19044;DHT22;9654;52.302;8.120;2024-02-21T06:38:19;8.20;99.90
19044;DHT22;9654;52.302;8.120;2024-02-21T06:40:46;8.20;99.90
19044;DHT22;9654;52.302;8.120;2024-02-21T06:43:20;8.20;99.90
19044;DHT22;9654;52.302;8.120;2024-02-21T06:45:48;8.20;99.90
19044;DHT22;9654;52.302;8.120;2024-02-21T06:48:17;8.20;99.90
19044;DHT22;9654;52.302;8.120;2024-02-21T06:50:44;8.20;99.90
19044;DHT22;9654;52.302;8.120;2024-02-21T06:53:11;8.20;99.90
19044;DHT22;9654;52.302;8.120;2024-02-21T06:55:38;8.20;99.90
19044;DHT22;9654;52.302;8.120;2024-02-21T06:58:05;8.20;99.90
19044;DHT22;9654;52.302;8.120;2024-02-21T07:00:38;8.20;99.90
19044;DHT22;9654;52.302;8.120;2024-02-21T07:03:06;8.20;99.90
19044;DHT22;9654;52.302;8.120;2024-02-21T07:05:33;8.30;99.90
19044;DHT22;9654;52.302;8.120;2024-02-21T07:08:00;8.20;99.90
19044;DHT22;9654;52.302;8.120;2024-02-21T07:10:28;8.20;99.90
19044;DHT22;9654;52.302;8.120;2024-02-21T07:12:55;8.20;99.90
19044;DHT22;9654;52.302;8.120;2024-02-21T07:15:22;8.30;99.90
19044;DHT22;9654;52.302;8.120;2024-02-21T07:17:53;8.30;99.90
19044;DHT22;9654;52.302;8.120;2024-02-21T07:20:20;8.30;99.90
19044;DHT22;9654;52.302;8.120;2024-02-21T07:22:47;8.30;99.90
19044;DHT22;9654;52.302;8.120;2024-02-21T07:25:14;8.30;99.90
19044;DHT22;9654;52.302;8.120;2024-02-21T07:27:41;8.30;99.90
19044;DHT22;9654;52.302;8.120;2024-02-21T07:30:09;8.30;99.90
19044;DHT22;9654;52.302;8.120;2024-02-21T07:32:36;8.40;99.90
19044;DHT22;9654;52.302;8.120;2024-02-21T07:35:05;8.40;99.90
19044;DHT22;9654;52.302;8.120;2024-02-21T07:37:36;8.40;99.90
19044;DHT22;9654;52.302;8.120;2024-02-21T07:40:04;8.40;99.90
19044;DHT22;9654;52.302;8.120;2024-02-21T07:42:31;8.40;99.90
19044;DHT22;9654;52.302;8.120;2024-02-21T07:44:58;8.40;99.90
19044;DHT22;9654;52.302;8.120;2024-02-21T07:47:24;8.40;99.90
19044;DHT22;9654;52.302;8.120;2024-02-21T07:49:51;8.50;99.90
19044;DHT22;9654;52.302;8.120;2024-02-21T07:52:20;8.50;99.90
19044;DHT22;9654;52.302;8.120;2024-02-21T07:54:46;8.50;99.90
19044;DHT22;9654;52.302;8.120;2024-02-21T07:57:13;8.50;99.90
19044;DHT22;9654;52.302;8.120;2024-02-21T07:59:40;8.60;99.90
19044;DHT22;9654;52.302;8.120;2024-02-21T08:02:07;8.60;99.90
19044;DHT22;9654;52.302;8.120;2024-02-21T08:04:34;8.60;99.90
19044;DHT22;9654;52.302;8.120;2024-02-21T08:07:01;8.60;99.90
19044;DHT22;9654;52.302;8.120;2024-02-21T08:09:31;8.60;99.90
19044;DHT22;9654;52.302;8.120;2024-02-21T08:11:58;8.60;99.90
19044;DHT22;9654;52.302;8.120;2024-02-21T08:14:25;8.60;99.90
19044;DHT22;9654;52.302;8.120;2024-02-21T08:16:52;8.60;99.90
19044;DHT22;9654;52.302;8.120;2024-02-21T08:19:21;8.50;99.90
19044;DHT22;9654;52.302;8.120;2024-02-21T08:21:48;8.50;99.90
19044;DHT22;9654;52.302;8.120;2024-02-21T08:24:15;8.50;99.90
19044;DHT22;9654;52.302;8.120;2024-02-21T08:26:44;8.60;99.90
19044;DHT22;9654;52.302;8.120;2024-02-21T08:29:11;8.60;99.90
19044;DHT22;9654;52.302;8.120;2024-02-21T08:31:38;8.60;99.90
19044;DHT22;9654;52.302;8.120;2024-02-21T08:34:05;8.60;99.90
19044;DHT22;9654;52.302;8.120;2024-02-21T08:36:33;8.70;99.90
19044;DHT22;9654;52.302;8.120;2024-02-21T08:39:01;8.70;99.90
19044;DHT22;9654;52.302;8.120;2024-02-21T08:41:32;8.70;99.90
19044;DHT22;9654;52.302;8.120;2024-02-21T08:44:00;8.80;99.90
19044;DHT22;9654;52.302;8.120;2024-02-21T08:46:28;8.80;99.90
19044;DHT22;9654;52.302;8.120;2024-02-21T08:48:55;8.80;99.90
19044;DHT22;9654;52.302;8.120;2024-02-21T08:51:22;8.90;99.90
19044;DHT22;9654;52.302;8.120;2024-02-21T08:53:49;8.90;99.90
19044;DHT22;9654;52.302;8.120;2024-02-21T08:56:17;9.00;99.90
19044;DHT22;9654;52.302;8.120;2024-02-21T08:58:44;9.00;99.90
19044;DHT22;9654;52.302;8.120;2024-02-21T09:01:12;9.00;99.90
19044;DHT22;9654;52.302;8.120;2024-02-21T09:03:40;9.00;99.90
19044;DHT22;9654;52.302;8.120;2024-02-21T09:06:08;9.00;99.90
19044;DHT22;9654;52.302;8.120;2024-02-21T09:08:36;9.10;99.90
19044;DHT22;9654;52.302;8.120;2024-02-21T09:11:05;9.10;99.90
19044;DHT22;9654;52.302;8.120;2024-02-21T09:13:32;9.10;99.90
19044;DHT22;9654;52.302;8.120;2024-02-21T09:15:59;9.20;99.90
19044;DHT22;9654;52.302;8.120;2024-02-21T09:18:27;9.20;99.90
19044;DHT22;9654;52.302;8.120;2024-02-21T09:20:55;9.20;99.90
19044;DHT22;9654;52.302;8.120;2024-02-21T09:23:24;9.20;99.90
19044;DHT22;9654;52.302;8.120;2024-02-21T09:25:51;9.30;99.90
19044;DHT22;9654;52.302;8.120;2024-02-21T09:28:18;9.30;99.90
19044;DHT22;9654;52.302;8.120;2024-02-21T09:30:45;9.40;99.90
19044;DHT22;9654;52.302;8.120;2024-02-21T09:33:12;9.40;99.90
19044;DHT22;9654;52.302;8.120;2024-02-21T09:35:41;9.50;99.90
19044;DHT22;9654;52.302;8.120;2024-02-21T09:38:08;9.50;99.90
19044;DHT22;9654;52.302;8.120;2024-02-21T09:40:35;9.50;99.90
19044;DHT22;9654;52.302;8.120;2024-02-21T09:43:05;9.60;99.90
19044;DHT22;9654;52.302;8.120;2024-02-21T09:45:33;9.70;99.90
19044;DHT22;9654;52.302;8.120;2024-02-21T09:48:25;9.70;99.90
19044;DHT22;9654;52.302;8.120;2024-02-21T09:50:59;9.70;99.90
19044;DHT22;9654;52.302;8.120;2024-02-21T09:53:27;9.70;99.90
19044;DHT22;9654;52.302;8.120;2024-02-21T09:55:56;9.70;99.90
19044;DHT22;9654;52.302;8.120;2024-02-21T09:58:23;9.80;99.90
19044;DHT22;9654;52.302;8.120;2024-02-21T10:00:53;9.80;99.90
19044;DHT22;9654;52.302;8.120;2024-02-21T10:03:19;9.80;99.90
19044;DHT22;9654;52.302;8.120;2024-02-21T10:05:48;9.80;99.90
19044;DHT22;9654;52.302;8.120;2024-02-21T10:08:19;9.80;99.90
19044;DHT22;9654;52.302;8.120;2024-02-21T10:10:46;9.90;99.90
19044;DHT22;9654;52.302;8.120;2024-02-21T10:13:24;9.90;99.90
19044;DHT22;9654;52.302;8.120;2024-02-21T10:16:04;9.90;99.90
19044;DHT22;9654;52.302;8.120;2024-02-21T10:18:31;9.90;99.90
19044;DHT22;9654;52.302;8.120;2024-02-21T10:21:05;9.90;99.90
19044;DHT22;9654;52.302;8.120;2024-02-21T10:23:44;9.90;99.90
19044;DHT22;9654;52.302;8.120;2024-02-21T10:26:11;9.90;99.90
19044;DHT22;9654;52.302;8.120;2024-02-21T10:28:38;9.90;99.90
19044;DHT22;9654;52.302;8.120;2024-02-21T10:31:08;10.00;99.90
19044;DHT22;9654;52.302;8.120;2024-02-21T10:33:36;10.00;99.90
19044;DHT22;9654;52.302;8.120;2024-02-21T10:36:07;10.00;99.90
19044;DHT22;9654;52.302;8.120;2024-02-21T10:38:35;10.00;99.90
19044;DHT22;9654;52.302;8.120;2024-02-21T10:41:05;10.00;99.90
19044;DHT22;9654;52.302;8.120;2024-02-21T10:43:39;10.00;99.90
19044;DHT22;9654;52.302;8.120;2024-02-21T10:46:07;9.90;99.90
19044;DHT22;9654;52.302;8.120;2024-02-21T10:48:42;9.90;99.90
19044;DHT22;9654;52.302;8.120;2024-02-21T10:51:15;10.00;99.90
19044;DHT22;9654;52.302;8.120;2024-02-21T10:53:50;10.00;99.90
19044;DHT22;9654;52.302;8.120;2024-02-21T10:56:28;9.90;99.90
19044;DHT22;9654;52.302;8.120;2024-02-21T10:58:57;9.90;99.90
19044;DHT22;9654;52.302;8.120;2024-02-21T11:01:24;10.00;99.90
19044;DHT22;9654;52.302;8.120;2024-02-21T11:03:53;10.00;99.90
19044;DHT22;9654;52.302;8.120;2024-02-21T11:06:21;9.90;99.90
19044;DHT22;9654;52.302;8.120;2024-02-21T11:09:00;10.00;99.90
19044;DHT22;9654;52.302;8.120;2024-02-21T11:11:30;10.00;99.90
19044;DHT22;9654;52.302;8.120;2024-02-21T11:14:04;10.10;99.90
19044;DHT22;9654;52.302;8.120;2024-02-21T11:16:35;10.20;99.90
19044;DHT22;9654;52.302;8.120;2024-02-21T11:19:06;10.20;99.90
19044;DHT22;9654;52.302;8.120;2024-02-21T11:21:34;10.20;99.90
19044;DHT22;9654;52.302;8.120;2024-02-21T11:24:02;10.10;99.90
19044;DHT22;9654;52.302;8.120;2024-02-21T11:26:31;10.00;99.90
19044;DHT22;9654;52.302;8.120;2024-02-21T11:28:59;10.10;99.90
19044;DHT22;9654;52.302;8.120;2024-02-21T11:31:27;10.10;99.90
19044;DHT22;9654;52.302;8.120;2024-02-21T11:34:04;10.10;99.90
19044;DHT22;9654;52.302;8.120;2024-02-21T11:36:31;10.20;99.90
19044;DHT22;9654;52.302;8.120;2024-02-21T11:39:03;10.20;99.90
19044;DHT22;9654;52.302;8.120;2024-02-21T11:41:32;10.20;99.90
19044;DHT22;9654;52.302;8.120;2024-02-21T11:43:59;10.30;99.90
19044;DHT22;9654;52.302;8.120;2024-02-21T11:46:26;10.40;99.90
19044;DHT22;9654;52.302;8.120;2024-02-21T11:48:53;10.30;99.90
19044;DHT22;9654;52.302;8.120;2024-02-21T11:51:25;10.30;99.90
19044;DHT22;9654;52.302;8.120;2024-02-21T11:53:52;10.30;99.90
19044;DHT22;9654;52.302;8.120;2024-02-21T11:56:19;10.30;36.50
19044;DHT22;9654;52.302;8.120;2024-02-21T11:58:49;10.30;1.00
19044;DHT22;9654;52.302;8.120;2024-02-21T12:01:16;10.20;1.00
19044;DHT22;9654;52.302;8.120;2024-02-21T12:03:43;10.20;1.00
19044;DHT22;9654;52.302;8.120;2024-02-21T12:06:16;10.20;1.00
19044;DHT22;9654;52.302;8.120;2024-02-21T12:08:46;10.20;1.00
19044;DHT22;9654;52.302;8.120;2024-02-21T12:11:19;10.10;1.00
19044;DHT22;9654;52.302;8.120;2024-02-21T12:13:46;10.00;1.00
19044;DHT22;9654;52.302;8.120;2024-02-21T12:16:16;9.90;1.00
19044;DHT22;9654;52.302;8.120;2024-02-21T12:18:46;9.90;1.00
19044;DHT22;9654;52.302;8.120;2024-02-21T12:21:13;9.90;1.00
19044;DHT22;9654;52.302;8.120;2024-02-21T12:23:40;9.90;1.00
19044;DHT22;9654;52.302;8.120;2024-02-21T12:26:06;9.80;1.00
19044;DHT22;9654;52.302;8.120;2024-02-21T12:28:34;9.80;1.00
19044;DHT22;9654;52.302;8.120;2024-02-21T12:31:01;9.80;9.40
19044;DHT22;9654;52.302;8.120;2024-02-21T12:33:31;9.90;4.60
19044;DHT22;9654;52.302;8.120;2024-02-21T12:35:58;9.80;7.70
19044;DHT22;9654;52.302;8.120;2024-02-21T12:38:25;9.80;17.40
19044;DHT22;9654;52.302;8.120;2024-02-21T12:40:52;9.80;25.00
19044;DHT22;9654;52.302;8.120;2024-02-21T12:43:19;9.80;50.10
19044;DHT22;9654;52.302;8.120;2024-02-21T12:45:48;9.70;51.60
19044;DHT22;9654;52.302;8.120;2024-02-21T12:48:15;9.80;92.50
19044;DHT22;9654;52.302;8.120;2024-02-21T12:50:48;9.80;89.00
19044;DHT22;9654;52.302;8.120;2024-02-21T12:53:15;9.70;52.40
19044;DHT22;9654;52.302;8.120;2024-02-21T12:55:42;9.60;97.40
19044;DHT22;9654;52.302;8.120;2024-02-21T12:58:09;9.70;99.90
19044;DHT22;9654;52.302;8.120;2024-02-21T13:00:36;9.70;94.70
19044;DHT22;9654;52.302;8.120;2024-02-21T13:03:03;9.70;99.90
19044;DHT22;9654;52.302;8.120;2024-02-21T13:05:33;9.80;92.90
19044;DHT22;9654;52.302;8.120;2024-02-21T13:08:01;9.80;50.30
19044;DHT22;9654;52.302;8.120;2024-02-21T13:10:28;9.80;80.30
19044;DHT22;9654;52.302;8.120;2024-02-21T13:12:55;9.80;85.00
19044;DHT22;9654;52.302;8.120;2024-02-21T13:15:22;9.80;86.40
19044;DHT22;9654;52.302;8.120;2024-02-21T13:17:49;9.70;50.90
19044;DHT22;9654;52.302;8.120;2024-02-21T13:20:15;9.70;96.30
19044;DHT22;9654;52.302;8.120;2024-02-21T13:22:42;9.70;86.50
19044;DHT22;9654;52.302;8.120;2024-02-21T13:25:10;9.70;99.90
19044;DHT22;9654;52.302;8.120;2024-02-21T13:27:40;9.60;68.80
19044;DHT22;9654;52.302;8.120;2024-02-21T13:30:08;9.60;98.10
19044;DHT22;9654;52.302;8.120;2024-02-21T13:32:35;9.60;99.90
19044;DHT22;9654;52.302;8.120;2024-02-21T13:35:03;9.70;98.90
19044;DHT22;9654;52.302;8.120;2024-02-21T13:37:30;9.70;99.90
19044;DHT22;9654;52.302;8.120;2024-02-21T13:39:56;9.70;25.00
19044;DHT22;9654;52.302;8.120;2024-02-21T13:42:25;9.60;90.30
19044;DHT22;9654;52.302;8.120;2024-02-21T13:44:53;9.60;39.10
19044;DHT22;9654;52.302;8.120;2024-02-21T13:47:20;9.60;60.00
19044;DHT22;9654;52.302;8.120;2024-02-21T13:49:48;9.70;63.00
19044;DHT22;9654;52.302;8.120;2024-02-21T13:52:15;9.60;51.10
19044;DHT22;9654;52.302;8.120;2024-02-21T13:54:42;9.70;60.90
19044;DHT22;9654;52.302;8.120;2024-02-21T13:57:09;9.60;62.70
19044;DHT22;9654;52.302;8.120;2024-02-21T13:59:37;9.60;51.80
19044;DHT22;9654;52.302;8.120;2024-02-21T14:02:05;9.70;63.30
19044;DHT22;9654;52.302;8.120;2024-02-21T14:04:34;9.70;7.10
19044;DHT22;9654;52.302;8.120;2024-02-21T14:07:01;9.70;16.70
19044;DHT22;9654;52.302;8.120;2024-02-21T14:09:28;9.80;6.60
19044;DHT22;9654;52.302;8.120;2024-02-21T14:11:56;9.70;1.00
19044;DHT22;9654;52.302;8.120;2024-02-21T14:14:22;9.70;1.00
19044;DHT22;9654;52.302;8.120;2024-02-21T14:16:51;9.80;1.00
19044;DHT22;9654;52.302;8.120;2024-02-21T14:19:18;9.70;1.00
19044;DHT22;9654;52.302;8.120;2024-02-21T14:21:46;9.70;1.00
19044;DHT22;9654;52.302;8.120;2024-02-21T14:24:13;9.70;1.00
19044;DHT22;9654;52.302;8.120;2024-02-21T14:26:40;9.70;1.00
19044;DHT22;9654;52.302;8.120;2024-02-21T14:29:07;9.70;1.00
19044;DHT22;9654;52.302;8.120;2024-02-21T14:31:34;9.80;1.00
19044;DHT22;9654;52.302;8.120;2024-02-21T14:34:02;9.80;1.00
19044;DHT22;9654;52.302;8.120;2024-02-21T14:36:29;9.70;1.00
19044;DHT22;9654;52.302;8.120;2024-02-21T14:38:56;9.70;1.00
19044;DHT22;9654;52.302;8.120;2024-02-21T14:41:23;9.70;1.00
19044;DHT22;9654;52.302;8.120;2024-02-21T14:43:50;9.70;1.00
19044;DHT22;9654;52.302;8.120;2024-02-21T14:46:18;9.70;1.00
19044;DHT22;9654;52.302;8.120;2024-02-21T14:48:45;9.70;1.00
19044;DHT22;9654;52.302;8.120;2024-02-21T14:51:13;9.70;1.00
19044;DHT22;9654;52.302;8.120;2024-02-21T14:53:40;9.70;1.00
19044;DHT22;9654;52.302;8.120;2024-02-21T14:56:12;9.60;1.00
19044;DHT22;9654;52.302;8.120;2024-02-21T14:58:40;9.60;1.00
19044;DHT22;9654;52.302;8.120;2024-02-21T15:01:07;9.60;1.00
19044;DHT22;9654;52.302;8.120;2024-02-21T15:03:34;9.60;1.00
19044;DHT22;9654;52.302;8.120;2024-02-21T15:06:01;9.60;1.00
19044;DHT22;9654;52.302;8.120;2024-02-21T15:08:29;9.60;1.00
19044;DHT22;9654;52.302;8.120;2024-02-21T15:10:56;9.60;1.00
19044;DHT22;9654;52.302;8.120;2024-02-21T15:13:23;9.60;1.00
19044;DHT22;9654;52.302;8.120;2024-02-21T15:15:51;9.60;1.00
19044;DHT22;9654;52.302;8.120;2024-02-21T15:18:20;9.50;1.00
19044;DHT22;9654;52.302;8.120;2024-02-21T15:20:46;9.50;1.00
19044;DHT22;9654;52.302;8.120;2024-02-21T15:23:13;9.50;1.00
19044;DHT22;9654;52.302;8.120;2024-02-21T15:25:42;9.50;3.90
19044;DHT22;9654;52.302;8.120;2024-02-21T15:28:09;9.50;99.90
19044;DHT22;9654;52.302;8.120;2024-02-21T15:30:38;9.50;99.90
19044;DHT22;9654;52.302;8.120;2024-02-21T15:33:05;9.50;99.90
19044;DHT22;9654;52.302;8.120;2024-02-21T15:35:32;9.50;99.90
19044;DHT22;9654;52.302;8.120;2024-02-21T15:37:59;9.40;99.90
19044;DHT22;9654;52.302;8.120;2024-02-21T15:40:26;9.40;99.90
19044;DHT22;9654;52.302;8.120;2024-02-21T15:42:54;9.40;99.90
19044;DHT22;9654;52.302;8.120;2024-02-21T15:45:21;9.40;99.90
19044;DHT22;9654;52.302;8.120;2024-02-21T15:47:48;9.40;99.90
19044;DHT22;9654;52.302;8.120;2024-02-21T15:50:16;9.40;99.90
19044;DHT22;9654;52.302;8.120;2024-02-21T15:52:44;9.40;99.90
19044;DHT22;9654;52.302;8.120;2024-02-21T15:55:11;9.30;99.90
19044;DHT22;9654;52.302;8.120;2024-02-21T15:57:38;9.30;99.90
19044;DHT22;9654;52.302;8.120;2024-02-21T16:00:08;9.40;99.90
19044;DHT22;9654;52.302;8.120;2024-02-21T16:02:37;9.30;99.90
19044;DHT22;9654;52.302;8.120;2024-02-21T16:05:07;9.40;99.90
19044;DHT22;9654;52.302;8.120;2024-02-21T16:07:35;9.40;99.90